Time;durP1;ratioP1;P1;durP2;ratioP2;P2;SDS_P1;SDS_P2;PMS_P1;PMS_P2;Temp;Humidity;BMP_temperature;BMP_pressure;BME280_temperature;BME280_humidity;BME280_pressure;Samples;Min_cycle;Max_cycle;Signal;HPM_P1;HPM_P2
2020/12/26 00:01:20;;;;;;;1999.90;999.90;;;3.50;99.90;;;;;;5095667;28;20453;-90
2020/12/26 00:03:49;;;;;;;1999.90;999.90;;;3.50;99.90;;;;;;5095614;28;20055;-90
2020/12/26 00:06:17;;;;;;;1999.90;999.90;;;3.50;99.90;;;;;;5092728;28;20083;-90
2020/12/26 00:08:54;;;;;;;1999.90;999.90;;;3.60;99.90;;;;;;5095773;28;20072;-90
2020/12/26 00:11:25;;;;;;;1999.90;999.90;;;3.50;99.90;;;;;;5097039;28;20054;-90
2020/12/26 00:13:53;;;;;;;1999.90;999.90;;;3.50;99.90;;;;;;5101817;28;20048;-90
2020/12/26 00:16:33;;;;;;;;;;;;;;;;;;;;;
2020/12/26 00:19:14;;;;;;;1999.90;999.90;;;3.60;99.90;;;;;;5108594;28;20067;-90
2020/12/26 00:21:50;;;;;;;1999.90;999.90;;;3.60;99.90;;;;;;5100090;28;20074;-90
2020/12/26 00:24:30;;;;;;;1999.90;999.90;;;3.60;99.90;;;;;;5099029;28;20055;-91
2020/12/26 00:26:58;;;;;;;1999.90;999.90;;;3.60;99.90;;;;;;5093612;28;20052;-90
2020/12/26 00:29:25;;;;;;;1999.90;999.90;;;3.70;99.90;;;;;;5083340;28;20059;-90
2020/12/26 00:31:53;;;;;;;1999.90;999.90;;;3.70;99.90;;;;;;5094569;28;20060;-90
2020/12/26 00:34:21;;;;;;;1999.90;999.90;;;3.70;99.90;;;;;;5095543;28;20044;-91
2020/12/26 00:36:48;;;;;;;1999.90;999.90;;;3.80;99.90;;;;;;5096588;28;20079;-90
2020/12/26 00:39:15;;;;;;;1999.90;999.90;;;3.80;99.90;;;;;;5104374;28;20135;-91
2020/12/26 00:41:46;;;;;;;1999.90;999.90;;;3.80;99.90;;;;;;5095407;28;20135;-90
2020/12/26 00:44:13;;;;;;;1999.90;999.90;;;3.80;99.90;;;;;;5097220;28;20068;-90
2020/12/26 00:46:40;;;;;;;1999.90;999.90;;;3.80;99.90;;;;;;5095336;28;20152;-91
2020/12/26 00:49:07;;;;;;;1999.90;999.90;;;3.80;99.90;;;;;;5095129;28;20052;-92
2020/12/26 00:51:34;;;;;;;1999.90;999.90;;;3.90;99.90;;;;;;5098108;28;20055;-92
2020/12/26 00:54:01;;;;;;;1999.90;999.90;;;3.90;99.90;;;;;;5095990;28;20105;-93
2020/12/26 00:56:28;;;;;;;1999.90;999.90;;;3.90;99.90;;;;;;5098652;28;20563;-94
2020/12/26 00:58:56;;;;;;;1999.90;999.90;;;3.90;99.90;;;;;;5088737;28;20498;-94
2020/12/26 01:01:23;;;;;;;1999.90;999.90;;;4.00;99.90;;;;;;5095147;28;20133;-92
2020/12/26 01:03:53;;;;;;;1999.90;999.90;;;4.00;99.90;;;;;;5095788;28;20043;-93
2020/12/26 01:06:21;;;;;;;1999.90;999.90;;;4.10;99.90;;;;;;5093336;28;20055;-93
2020/12/26 01:08:48;;;;;;;1999.90;999.90;;;4.00;99.90;;;;;;5091937;28;20126;-93
2020/12/26 01:11:15;;;;;;;1999.90;999.90;;;4.10;99.90;;;;;;5091336;28;20055;-93
2020/12/26 01:13:42;;;;;;;1999.90;999.90;;;4.10;99.90;;;;;;5096252;28;20044;-93
2020/12/26 01:16:12;;;;;;;1999.90;999.90;;;4.10;99.90;;;;;;5091917;28;20052;-94
2020/12/26 01:18:39;;;;;;;1999.90;999.90;;;4.20;99.90;;;;;;5092677;28;20447;-93
2020/12/26 01:21:07;;;;;;;1999.90;999.90;;;4.20;99.90;;;;;;5089630;28;20184;-93
2020/12/26 01:23:35;;;;;;;1999.90;999.90;;;4.20;99.90;;;;;;5097130;28;20075;-94
2020/12/26 01:26:02;;;;;;;1999.90;999.90;;;4.20;99.90;;;;;;5092694;28;20055;-93
2020/12/26 01:28:29;;;;;;;1999.90;999.90;;;4.20;99.90;;;;;;5098233;28;20079;-93
2020/12/26 01:30:56;;;;;;;1999.90;999.90;;;4.20;99.90;;;;;;5094946;28;20056;-94
2020/12/26 01:33:24;;;;;;;1999.90;999.90;;;4.30;99.90;;;;;;5095380;28;20055;-94
2020/12/26 01:35:51;;;;;;;1999.90;999.90;;;4.30;99.90;;;;;;5092218;28;20131;-94
2020/12/26 01:38:18;;;;;;;1999.90;999.90;;;4.30;99.90;;;;;;5090688;28;20075;-93
2020/12/26 01:40:49;;;;;;;1999.90;999.90;;;4.30;99.90;;;;;;5094788;28;20075;-93
2020/12/26 01:43:16;;;;;;;1999.90;999.90;;;4.30;99.90;;;;;;5097163;28;20101;-94
2020/12/26 01:45:43;;;;;;;1999.90;999.90;;;4.30;99.90;;;;;;5086651;28;20175;-94
2020/12/26 01:48:15;;;;;;;1999.90;999.90;;;4.30;99.90;;;;;;5092948;28;20059;-93
2020/12/26 01:50:43;;;;;;;1999.90;999.90;;;4.30;99.90;;;;;;5089728;28;20105;-93
2020/12/26 01:53:11;;;;;;;1999.90;999.90;;;4.30;99.90;;;;;;5107362;28;20063;-94
2020/12/26 01:55:40;;;;;;;1999.90;999.90;;;4.40;99.90;;;;;;5094687;28;20093;-93
2020/12/26 01:58:13;;;;;;;1999.90;999.90;;;4.40;99.90;;;;;;5093777;28;20048;-93
2020/12/26 02:00:40;;;;;;;1999.90;999.90;;;4.40;99.90;;;;;;5087326;28;20492;-93
2020/12/26 02:03:07;;;;;;;1999.90;999.90;;;4.40;99.90;;;;;;5095052;28;20479;-93
2020/12/26 02:05:35;;;;;;;1999.90;999.90;;;4.40;99.90;;;;;;5094473;28;20063;-94
2020/12/26 02:08:04;;;;;;;1999.90;999.90;;;4.40;99.90;;;;;;5099618;28;20087;-94
2020/12/26 02:10:33;;;;;;;1999.90;999.90;;;4.40;99.90;;;;;;5093151;28;20181;-93
2020/12/26 02:13:01;;;;;;;1999.90;999.90;;;4.40;99.90;;;;;;5094055;28;20047;-93
2020/12/26 02:15:30;;;;;;;1999.90;999.90;;;4.40;99.90;;;;;;5104529;28;20039;-93
2020/12/26 02:17:57;;;;;;;1999.90;999.90;;;4.40;99.90;;;;;;5099288;28;20072;-94
2020/12/26 02:20:35;;;;;;;1999.90;999.90;;;4.40;99.90;;;;;;5114454;28;20104;-93
2020/12/26 02:23:04;;;;;;;1999.90;999.90;;;4.40;99.90;;;;;;5096118;28;20044;-94
2020/12/26 02:25:33;;;;;;;1999.90;999.90;;;4.40;99.90;;;;;;5098009;28;20151;-93
2020/12/26 02:28:00;;;;;;;1999.90;999.90;;;4.40;99.90;;;;;;5091656;28;20098;-93
2020/12/26 02:30:28;;;;;;;1999.90;999.90;;;4.40;99.90;;;;;;5094321;28;20056;-94
2020/12/26 02:32:55;;;;;;;1999.90;999.90;;;4.40;99.90;;;;;;5094178;28;20051;-92
2020/12/26 02:35:22;;;;;;;1999.90;999.90;;;4.40;99.90;;;;;;5098472;28;20056;-94
2020/12/26 02:37:50;;;;;;;1999.90;999.90;;;4.30;99.90;;;;;;5093610;28;20052;-94
2020/12/26 02:40:20;;;;;;;1999.90;999.90;;;4.40;99.90;;;;;;5096822;28;20048;-93
2020/12/26 02:42:48;;;;;;;1999.90;999.90;;;4.30;99.90;;;;;;5102585;28;20048;-93
2020/12/26 02:45:15;;;;;;;1999.90;999.90;;;4.30;99.90;;;;;;5097304;28;20068;-93
2020/12/26 02:47:44;;;;;;;1999.90;999.90;;;4.30;99.90;;;;;;5094609;28;20068;-93
2020/12/26 02:50:11;;;;;;;1999.90;999.90;;;4.30;99.90;;;;;;5092937;28;20051;-93
2020/12/26 02:52:39;;;;;;;1999.90;999.90;;;4.30;99.90;;;;;;5094476;28;20048;-93
2020/12/26 02:55:06;;;;;;;1999.90;999.90;;;4.20;99.90;;;;;;5093661;28;20048;-93
2020/12/26 02:57:33;;;;;;;1999.90;999.90;;;4.20;99.90;;;;;;5093914;28;20056;-93
2020/12/26 03:00:01;;;;;;;1999.90;999.90;;;4.20;99.90;;;;;;5099372;28;20056;-93
2020/12/26 03:02:28;;;;;;;1999.90;999.90;;;4.20;99.90;;;;;;5094017;28;20048;-93
2020/12/26 03:04:56;;;;;;;1999.90;999.90;;;4.20;99.90;;;;;;5092604;28;20474;-91
2020/12/26 03:07:23;;;;;;;1999.90;999.90;;;4.10;99.90;;;;;;5097505;28;20060;-93
2020/12/26 03:09:50;;;;;;;1999.90;999.90;;;4.10;99.90;;;;;;5093203;28;20120;-93
2020/12/26 03:12:17;;;;;;;1999.90;999.90;;;4.10;99.90;;;;;;5093606;28;20056;-93
2020/12/26 03:14:44;;;;;;;1999.90;999.90;;;4.10;99.90;;;;;;5093001;28;20062;-93
2020/12/26 03:17:13;;;;;;;1999.90;999.90;;;4.10;99.90;;;;;;5092713;28;20048;-93
2020/12/26 03:19:40;;;;;;;1999.90;999.90;;;4.10;99.90;;;;;;5103153;28;20095;-93
2020/12/26 03:22:08;;;;;;;1999.90;999.90;;;4.20;99.90;;;;;;5093027;28;20047;-93
2020/12/26 03:24:35;;;;;;;1999.90;999.90;;;4.10;99.90;;;;;;5093533;28;20093;-94
2020/12/26 03:27:02;;;;;;;1999.90;999.90;;;4.10;99.90;;;;;;5094336;28;20060;-93
2020/12/26 03:29:29;;;;;;;1999.90;999.90;;;4.10;99.90;;;;;;5104887;28;20463;-93
2020/12/26 03:31:57;;;;;;;1999.90;999.90;;;4.10;99.90;;;;;;5092911;28;20071;-93
2020/12/26 03:34:26;;;;;;;1999.90;999.90;;;4.10;99.90;;;;;;5093154;28;20048;-93
2020/12/26 03:36:53;;;;;;;1999.90;999.90;;;4.10;99.90;;;;;;5094648;28;20055;-93
2020/12/26 03:39:20;;;;;;;1999.90;999.90;;;4.10;99.90;;;;;;5088234;28;20109;-93
2020/12/26 03:41:47;;;;;;;1999.90;999.90;;;4.10;99.90;;;;;;5094033;28;20156;-93
2020/12/26 03:44:14;;;;;;;1999.90;999.90;;;4.00;99.90;;;;;;5096082;28;20076;-93
2020/12/26 03:46:44;;;;;;;1999.90;999.90;;;4.10;99.90;;;;;;5093015;28;20537;-93
2020/12/26 03:49:13;;;;;;;1999.90;999.90;;;4.10;99.90;;;;;;5104774;28;20052;-93
2020/12/26 03:51:41;;;;;;;1999.90;999.90;;;4.00;99.90;;;;;;5081982;28;20076;-93
2020/12/26 03:54:08;;;;;;;1999.90;999.90;;;4.00;99.90;;;;;;5093420;28;20082;-94
2020/12/26 03:56:36;;;;;;;1999.90;999.90;;;4.10;99.90;;;;;;5093675;28;20485;-93
2020/12/26 03:59:04;;;;;;;1999.90;999.90;;;4.10;99.90;;;;;;5093040;28;20131;-93
2020/12/26 04:01:31;;;;;;;1999.90;999.90;;;4.00;99.90;;;;;;5093116;28;20052;-93
2020/12/26 04:03:59;;;;;;;1999.90;999.90;;;4.10;99.90;;;;;;5094552;28;20398;-93
2020/12/26 04:06:26;;;;;;;1999.90;999.90;;;4.00;99.90;;;;;;5095807;28;20071;-93
2020/12/26 04:08:54;;;;;;;1999.90;999.90;;;4.10;99.90;;;;;;5102537;28;20470;-94
2020/12/26 04:11:21;;;;;;;1999.90;999.90;;;4.10;99.90;;;;;;5093006;28;20067;-93
2020/12/26 04:13:50;;;;;;;1999.90;999.90;;;4.00;99.90;;;;;;5100898;28;20056;-93
2020/12/26 04:16:17;;;;;;;1999.90;999.90;;;4.00;99.90;;;;;;5096442;28;20083;-93
2020/12/26 04:18:45;;;;;;;1999.90;999.90;;;4.00;99.90;;;;;;5096939;28;20138;-92
2020/12/26 04:21:12;;;;;;;1999.90;999.90;;;4.00;99.90;;;;;;5096301;28;20138;-92
2020/12/26 04:23:40;;;;;;;1999.90;999.90;;;4.00;99.90;;;;;;5096351;28;20071;-92
2020/12/26 04:26:10;;;;;;;1999.90;999.90;;;4.00;99.90;;;;;;5092462;28;20450;-93
2020/12/26 04:28:37;;;;;;;1999.90;999.90;;;4.00;99.90;;;;;;5091595;28;20052;-93
2020/12/26 04:31:04;;;;;;;1999.90;999.90;;;4.10;99.90;;;;;;5096153;28;20451;-93
2020/12/26 04:33:31;;;;;;;1999.90;999.90;;;4.10;99.90;;;;;;5096073;28;20137;-93
2020/12/26 04:35:58;;;;;;;1999.90;999.90;;;4.10;99.90;;;;;;5096566;28;20044;-93
2020/12/26 04:38:25;;;;;;;1999.90;999.90;;;4.10;99.90;;;;;;5096283;28;20505;-93
2020/12/26 04:40:52;;;;;;;1999.90;999.90;;;4.10;99.90;;;;;;5093576;28;20049;-93
2020/12/26 04:43:20;;;;;;;1999.90;999.90;;;4.10;99.90;;;;;;5095113;28;20048;-93
2020/12/26 04:45:48;;;;;;;1999.90;999.90;;;4.20;99.90;;;;;;5104488;28;20132;-92
2020/12/26 04:48:16;;;;;;;1999.90;999.90;;;4.20;99.90;;;;;;5095564;28;20105;-93
2020/12/26 04:50:48;;;;;;;1999.90;999.90;;;4.20;99.90;;;;;;5095332;28;20153;-93
2020/12/26 04:53:17;;;;;;;1999.90;999.90;;;4.20;99.90;;;;;;5095587;28;20062;-93
2020/12/26 04:55:48;;;;;;;1999.90;999.90;;;4.20;99.90;;;;;;5096391;28;20048;-93
2020/12/26 04:58:17;;;;;;;1999.90;999.90;;;4.20;99.90;;;;;;5102294;28;20486;-93
2020/12/26 05:00:46;;;;;;;1999.90;999.90;;;4.20;99.90;;;;;;5095662;28;20455;-93
2020/12/26 05:03:17;;;;;;;1999.90;999.90;;;4.20;99.90;;;;;;5094993;28;20048;-94
2020/12/26 05:05:45;;;;;;;1999.90;999.90;;;4.20;99.90;;;;;;5091145;28;20117;-93
2020/12/26 05:08:15;;;;;;;1999.90;999.90;;;4.30;99.90;;;;;;5094602;28;20054;-93
2020/12/26 05:10:43;;;;;;;1999.90;999.90;;;4.30;99.90;;;;;;5095107;28;20052;-93
2020/12/26 05:13:12;;;;;;;1999.90;999.90;;;4.30;99.90;;;;;;5103802;28;20105;-93
2020/12/26 05:15:40;;;;;;;1999.90;999.90;;;4.40;99.90;;;;;;5094109;28;20052;-93
2020/12/26 05:18:08;;;;;;;1999.90;999.90;;;4.40;99.90;;;;;;5094432;28;20127;-93
2020/12/26 05:20:35;;;;;;;1999.90;999.90;;;4.40;99.90;;;;;;5096225;28;20449;-93
2020/12/26 05:23:07;;;;;;;1999.90;999.90;;;4.40;99.90;;;;;;5106557;28;20131;-93
2020/12/26 05:25:39;;;;;;;1999.90;999.90;;;4.50;99.90;;;;;;5094739;28;20040;-94
2020/12/26 05:28:14;;;;;;;1999.90;999.90;;;4.50;99.90;;;;;;5095335;28;20425;-92
2020/12/26 05:30:43;;;;;;;1999.90;999.90;;;4.50;99.90;;;;;;5090473;28;20052;-93
2020/12/26 05:33:13;;;;;;;1999.90;999.90;;;4.50;99.90;;;;;;5095051;28;20469;-93
2020/12/26 05:35:41;;;;;;;1999.90;999.90;;;4.50;99.90;;;;;;5094914;28;20086;-93
2020/12/26 05:38:14;;;;;;;1999.90;999.90;;;4.50;99.90;;;;;;5095781;28;20060;-93
2020/12/26 05:40:50;;;;;;;1999.90;999.90;;;4.60;99.90;;;;;;5092263;28;20131;-93
2020/12/26 05:43:18;;;;;;;1999.90;999.90;;;4.60;99.90;;;;;;5094831;28;20056;-92
2020/12/26 05:45:47;;;;;;;1999.90;999.90;;;4.60;99.90;;;;;;5106254;28;20562;-93
2020/12/26 05:48:19;;;;;;;1999.90;999.90;;;4.60;99.90;;;;;;5094104;28;20051;-93
2020/12/26 05:50:47;;;;;;;1999.90;999.90;;;4.70;99.90;;;;;;5093813;28;20080;-92
2020/12/26 05:53:18;;;;;;;1999.90;999.90;;;4.70;99.90;;;;;;5091526;28;20518;-93
2020/12/26 05:55:46;;;;;;;1999.90;999.90;;;4.70;99.90;;;;;;5088586;28;20105;-93
2020/12/26 05:58:14;;;;;;;1999.90;999.90;;;4.80;99.90;;;;;;5093225;28;20044;-93
2020/12/26 06:00:42;;;;;;;1999.90;999.90;;;4.70;99.90;;;;;;5093533;28;20051;-93
2020/12/26 06:03:25;;;;;;;1999.90;999.90;;;4.80;99.90;;;;;;5093656;28;20105;-93
2020/12/26 06:05:53;;;;;;;1999.90;999.90;;;4.80;99.90;;;;;;5094349;28;20079;-93
2020/12/26 06:08:22;;;;;;;1999.90;999.90;;;4.70;99.90;;;;;;5092196;28;20075;-92
2020/12/26 06:10:51;;;;;;;1999.90;999.90;;;4.80;99.90;;;;;;5086439;28;20487;-93
2020/12/26 06:13:20;;;;;;;1999.90;999.90;;;4.80;99.90;;;;;;5101988;28;20052;-93
2020/12/26 06:15:52;;;;;;;1999.90;999.90;;;4.80;99.90;;;;;;5103545;28;20048;-93
2020/12/26 06:18:21;;;;;;;1999.90;999.90;;;4.80;99.90;;;;;;5094255;28;20048;-93
2020/12/26 06:20:51;;;;;;;1999.90;999.90;;;4.80;99.90;;;;;;5094734;28;20091;-93
2020/12/26 06:23:20;;;;;;;1999.90;999.90;;;4.80;99.90;;;;;;5097422;28;20110;-93
2020/12/26 06:25:48;;;;;;;1999.90;999.90;;;4.80;99.90;;;;;;5095104;28;20040;-93
2020/12/26 06:28:27;;;;;;;1999.90;999.90;;;4.80;99.90;;;;;;5095794;28;20056;-93
2020/12/26 06:30:56;;;;;;;1999.90;999.90;;;4.80;99.90;;;;;;5083448;28;20044;-93
2020/12/26 06:33:25;;;;;;;1999.90;999.90;;;4.80;99.90;;;;;;5094629;28;20490;-93
2020/12/26 06:35:56;;;;;;;1999.90;999.90;;;4.80;99.90;;;;;;5097131;28;20474;-93
2020/12/26 06:38:28;;;;;;;1999.90;999.90;;;4.80;99.90;;;;;;5087165;28;20047;-93
2020/12/26 06:41:01;;;;;;;1999.90;999.90;;;4.80;99.90;;;;;;5092804;28;20101;-93
2020/12/26 06:43:49;;;;;;;1999.90;999.90;;;4.80;99.90;;;;;;5105527;28;20047;-93
2020/12/26 06:46:39;;;;;;;1999.90;999.90;;;4.80;99.90;;;;;;5102152;28;20044;-93
2020/12/26 06:49:06;;;;;;;1999.90;999.90;;;4.80;99.90;;;;;;5099723;28;20054;-94
2020/12/26 06:51:41;;;;;;;1999.90;999.90;;;4.80;99.90;;;;;;5103468;28;20070;-93
2020/12/26 06:54:12;;;;;;;1999.90;999.90;;;4.80;99.90;;;;;;5101012;28;20051;-93
2020/12/26 06:56:46;;;;;;;1999.90;999.90;;;4.80;99.90;;;;;;5111363;28;20450;-93
2020/12/26 06:59:14;;;;;;;1999.90;999.90;;;4.80;99.90;;;;;;5092406;28;20060;-93
2020/12/26 07:01:44;;;;;;;1999.90;999.90;;;4.80;99.90;;;;;;5100761;28;20044;-91
2020/12/26 07:04:19;;;;;;;1999.90;999.90;;;4.80;99.90;;;;;;5093886;28;20044;-93
2020/12/26 07:06:48;;;;;;;1999.90;999.90;;;4.80;99.90;;;;;;5092990;28;20048;-93
2020/12/26 07:09:18;;;;;;;1999.90;999.90;;;4.90;99.90;;;;;;5105082;28;20075;-93
2020/12/26 07:11:47;;;;;;;1999.90;999.90;;;4.80;99.90;;;;;;5093324;28;20083;-93
2020/12/26 07:14:31;;;;;;;1999.90;999.90;;;4.90;99.90;;;;;;5095743;28;20117;-93
2020/12/26 07:16:59;;;;;;;1999.90;999.90;;;4.90;99.90;;;;;;5088405;28;20044;-92
2020/12/26 07:19:32;;;;;;;1999.90;999.90;;;4.90;99.90;;;;;;5088783;28;20097;-93
2020/12/26 07:22:02;;;;;;;1999.90;999.90;;;4.90;99.90;;;;;;5093108;28;20101;-92
2020/12/26 07:24:32;;;;;;;1999.90;999.90;;;4.90;99.90;;;;;;5088540;28;20048;-93
2020/12/26 07:27:21;;;;;;;1999.90;999.90;;;5.00;99.90;;;;;;5094028;28;20483;-92
2020/12/26 07:29:59;;;;;;;1999.90;999.90;;;5.00;99.90;;;;;;5089489;28;20706;-92
2020/12/26 07:32:44;;;;;;;1999.90;999.90;;;5.00;99.90;;;;;;5095475;28;20055;-93
2020/12/26 07:35:41;;;;;;;1999.90;999.90;;;5.00;99.90;;;;;;5097700;28;20070;-93
2020/12/26 07:38:14;;;;;;;1999.90;999.90;;;5.00;99.90;;;;;;5102693;28;20056;-93
2020/12/26 07:40:43;;;;;;;1999.90;999.90;;;5.00;99.90;;;;;;5105939;28;20166;-92
2020/12/26 07:43:13;;;;;;;1999.90;999.90;;;5.00;99.90;;;;;;5097883;28;20080;-93
2020/12/26 07:45:42;;;;;;;1999.90;999.90;;;5.00;99.90;;;;;;5097366;28;20441;-93
2020/12/26 07:48:10;;;;;;;1999.90;999.90;;;5.00;99.90;;;;;;5099993;28;20067;-93
2020/12/26 07:50:39;;;;;;;1999.90;999.90;;;5.00;99.90;;;;;;5104922;28;20055;-93
2020/12/26 07:53:07;;;;;;;1999.90;999.90;;;4.90;99.90;;;;;;5083314;28;20450;-93
2020/12/26 07:55:36;;;;;;;1999.90;999.90;;;5.00;99.90;;;;;;5097354;28;20074;-93
2020/12/26 07:58:05;;;;;;;1999.90;999.90;;;4.90;99.90;;;;;;5097626;28;20064;-94
2020/12/26 08:00:34;;;;;;;1999.90;999.90;;;5.00;99.90;;;;;;5099039;28;20609;-93
2020/12/26 08:03:04;;;;;;;1999.90;999.90;;;5.00;99.90;;;;;;5095466;28;20044;-94
2020/12/26 08:05:33;;;;;;;1999.90;999.90;;;4.90;99.90;;;;;;5098147;28;20130;-94
2020/12/26 08:08:01;;;;;;;1999.90;999.90;;;5.00;99.90;;;;;;5097463;28;20105;-94
2020/12/26 08:10:29;;;;;;;1999.90;999.90;;;4.90;99.90;;;;;;5097645;28;20528;-94
2020/12/26 08:13:03;;;;;;;1999.90;999.90;;;5.00;99.90;;;;;;5098444;28;20078;-94
2020/12/26 08:15:32;;;;;;;1999.90;999.90;;;4.90;99.90;;;;;;5097844;28;20048;-94
2020/12/26 08:18:01;;;;;;;1999.90;999.90;;;4.90;99.90;;;;;;5096915;28;20052;-94
2020/12/26 08:20:35;;;;;;;1999.90;999.90;;;5.00;99.90;;;;;;5084345;28;20134;-93
2020/12/26 08:23:02;;;;;;;1999.90;999.90;;;5.00;99.90;;;;;;5098053;28;20120;-94
2020/12/26 08:25:31;;;;;;;1999.90;999.90;;;5.00;99.90;;;;;;5097835;28;20066;-94
2020/12/26 08:27:59;;;;;;;1999.90;999.90;;;5.00;99.90;;;;;;5097134;28;20056;-95
2020/12/26 08:30:29;;;;;;;1999.90;999.90;;;5.10;99.90;;;;;;5092971;28;20055;-93
2020/12/26 08:33:21;;;;;;;1999.90;999.90;;;5.10;99.90;;;;;;5097686;28;20563;-94
2020/12/26 08:35:54;;;;;;;1999.90;999.90;;;5.10;99.90;;;;;;5094478;28;20435;-95
2020/12/26 08:38:25;;;;;;;1999.90;999.90;;;5.10;99.90;;;;;;5102462;28;20048;-94
2020/12/26 08:40:59;;;;;;;1999.90;999.90;;;5.10;99.90;;;;;;5099077;28;20055;-94
2020/12/26 08:43:27;;;;;;;1999.90;999.90;;;5.00;99.90;;;;;;5097915;28;20059;-94
2020/12/26 08:45:55;;;;;;;1999.90;999.90;;;5.10;99.90;;;;;;5095694;28;20101;-93
2020/12/26 08:48:26;;;;;;;1999.90;999.90;;;5.10;99.90;;;;;;5099104;28;20097;-95
2020/12/26 08:50:54;;;;;;;1999.90;999.90;;;5.10;99.90;;;;;;5097711;28;20070;-95
2020/12/26 08:53:23;;;;;;;1999.90;999.90;;;5.20;99.90;;;;;;5112224;28;20112;-95
2020/12/26 08:55:51;;;;;;;1999.90;999.90;;;5.10;99.90;;;;;;5100773;28;20495;-94
2020/12/26 08:58:26;;;;;;;1999.90;999.90;;;5.10;99.90;;;;;;5096426;28;20052;-95
2020/12/26 09:00:55;;;;;;;;;;;5.10;99.90;;;;;;5104893;28;20048;-95
2020/12/26 09:03:24;;;;;;;1999.90;999.90;;;5.10;99.90;;;;;;5097580;28;20007;-95
2020/12/26 09:05:52;;;;;;;1999.90;999.90;;;5.10;99.90;;;;;;5097453;28;20524;-94
2020/12/26 09:08:26;;;;;;;1999.90;999.90;;;5.10;99.90;;;;;;5088122;28;20048;-94
2020/12/26 09:11:01;;;;;;;1999.90;999.90;;;5.10;99.90;;;;;;5109526;28;20047;-95
2020/12/26 09:13:31;;;;;;;1999.90;999.90;;;5.20;99.90;;;;;;5114203;28;20123;-95
2020/12/26 09:16:02;;;;;;;1999.90;999.90;;;5.20;99.90;;;;;;5118248;28;20048;-93
2020/12/26 09:18:36;;;;;;;1999.90;999.90;;;5.20;99.90;;;;;;5117057;28;20414;-93
2020/12/26 09:21:06;;;;;;;1999.90;999.90;;;5.20;99.90;;;;;;5117938;28;20067;-93
2020/12/26 09:23:38;;;;;;;1999.90;999.90;;;5.20;99.90;;;;;;5117152;28;20083;-92
2020/12/26 09:26:15;;;;;;;1999.90;999.90;;;5.20;99.90;;;;;;5108254;28;20120;-93
2020/12/26 09:28:53;;;;;;;1999.90;999.90;;;5.20;99.90;;;;;;5097657;28;20109;-92
2020/12/26 09:31:23;;;;;;;1999.90;999.90;;;5.10;99.90;;;;;;5076893;28;20055;-92
2020/12/26 09:33:51;;;;;;;1999.90;999.90;;;5.20;99.90;;;;;;5083615;28;20527;-91
2020/12/26 09:36:22;;;;;;;1999.90;999.90;;;5.20;99.90;;;;;;5091846;28;20405;-90
2020/12/26 09:38:51;;;;;;;1999.90;999.90;;;5.20;99.90;;;;;;5094101;28;21377;-90
2020/12/26 09:41:23;;;;;;;1999.90;999.90;;;5.20;99.90;;;;;;5094324;28;20075;-91
2020/12/26 09:43:52;;;;;;;1999.90;999.90;;;5.20;99.90;;;;;;5093586;28;20495;-91
2020/12/26 09:46:23;;;;;;;1999.90;999.90;;;5.20;99.90;;;;;;5093234;28;20886;-90
2020/12/26 09:48:50;;;;;;;1999.90;999.90;;;5.20;99.90;;;;;;5093176;28;20054;-90
2020/12/26 09:51:20;;;;;;;1999.90;999.90;;;5.20;99.90;;;;;;5094371;28;20064;-90
2020/12/26 09:53:50;;;;;;;1999.90;999.90;;;5.20;99.90;;;;;;5090692;28;20133;-90
2020/12/26 09:56:17;;;;;;;1999.90;999.90;;;5.20;99.90;;;;;;5093779;28;20098;-91
2020/12/26 09:58:46;;;;;;;1999.90;999.90;;;5.20;99.90;;;;;;5095226;28;20053;-90
2020/12/26 10:01:14;;;;;;;1999.90;999.90;;;5.30;99.90;;;;;;5092958;28;20052;-90
2020/12/26 10:03:42;;;;;;;1999.90;999.90;;;5.30;99.90;;;;;;5096140;28;20047;-90
2020/12/26 10:06:13;;;;;;;1999.90;999.90;;;5.30;99.90;;;;;;5098159;28;20136;-90
2020/12/26 10:08:44;;;;;;;1999.90;999.90;;;5.30;99.90;;;;;;5093341;28;20097;-90
2020/12/26 10:11:12;;;;;;;1999.90;999.90;;;5.20;99.90;;;;;;5095313;28;20101;-90
2020/12/26 10:13:39;;;;;;;1999.90;999.90;;;5.30;99.90;;;;;;5093689;28;20052;-90
2020/12/26 10:16:07;;;;;;;1999.90;999.90;;;5.20;99.90;;;;;;5094018;28;20036;-90
2020/12/26 10:18:37;;;;;;;1999.90;999.90;;;5.20;99.90;;;;;;5104543;28;20135;-90
2020/12/26 10:21:05;;;;;;;1999.90;999.90;;;5.30;99.90;;;;;;5094380;28;20154;-90
2020/12/26 10:23:39;;;;;;;1999.90;999.90;;;5.30;99.90;;;;;;5101201;28;20448;-90
2020/12/26 10:26:10;;;;;;;1999.90;999.90;;;5.30;99.90;;;;;;5094435;28;20063;-90
2020/12/26 10:28:38;;;;;;;1999.90;999.90;;;5.30;99.90;;;;;;5095456;28;20048;-90
2020/12/26 10:31:05;;;;;;;1999.90;999.90;;;5.30;99.90;;;;;;5091842;28;20093;-90
2020/12/26 10:33:33;;;;;;;1999.90;999.90;;;5.30;99.90;;;;;;5097513;28;20502;-90
2020/12/26 10:36:02;;;;;;;1999.90;999.90;;;5.40;99.90;;;;;;5090235;28;20044;-90
2020/12/26 10:38:30;;;;;;;1999.90;999.90;;;5.40;99.90;;;;;;5093777;28;20060;-90
2020/12/26 10:40:57;;;;;;;1999.90;999.90;;;5.30;99.90;;;;;;5092701;28;20063;-89
2020/12/26 10:43:27;;;;;;;1999.90;999.90;;;5.40;99.90;;;;;;5093980;28;20047;-90
2020/12/26 10:45:55;;;;;;;1999.90;999.90;;;5.40;99.90;;;;;;5098238;28;20435;-90
2020/12/26 10:48:22;;;;;;;1999.90;999.90;;;5.40;99.90;;;;;;5092620;28;20452;-90
2020/12/26 10:50:49;;;;;;;1999.90;999.90;;;5.40;99.90;;;;;;5094154;28;20137;-90
2020/12/26 10:53:18;;;;;;;1999.90;999.90;;;5.40;99.90;;;;;;5093654;28;20103;-90
2020/12/26 10:55:46;;;;;;;1999.90;999.90;;;5.40;99.90;;;;;;5093318;28;20412;-89
2020/12/26 10:58:13;;;;;;;1999.90;999.90;;;5.40;99.90;;;;;;5093528;28;20052;-90
2020/12/26 11:00:40;;;;;;;1999.90;999.90;;;5.50;99.90;;;;;;5091682;28;20047;-90
2020/12/26 11:03:31;;;;;;;1999.90;999.90;;;5.50;99.90;;;;;;5082100;28;20044;-88
2020/12/26 11:06:04;;;;;;;1999.90;999.90;;;5.50;99.90;;;;;;5098641;28;20466;-93
2020/12/26 11:08:32;;;;;;;1999.90;999.90;;;5.50;99.90;;;;;;5093351;28;20059;-90
2020/12/26 11:11:11;;;;;;;1999.90;999.90;;;5.50;99.90;;;;;;5090892;28;20044;-90
2020/12/26 11:13:39;;;;;;;1999.90;999.90;;;5.50;99.90;;;;;;5099976;28;20040;-90
2020/12/26 11:16:06;;;;;;;1999.90;999.90;;;5.60;99.90;;;;;;5101134;28;20048;-89
2020/12/26 11:18:33;;;;;;;1999.90;999.90;;;5.60;99.90;;;;;;5096146;28;20482;-89
2020/12/26 11:21:00;;;;;;;1999.90;999.90;;;5.50;99.90;;;;;;5100582;28;20047;-89
2020/12/26 11:23:27;;;;;;;1999.90;999.90;;;5.50;99.90;;;;;;5090673;28;20121;-89
2020/12/26 11:25:57;;;;;;;1999.90;999.90;;;5.50;99.90;;;;;;5104890;28;20064;-90
2020/12/26 11:28:39;;;;;;;1999.90;999.90;;;5.50;99.90;;;;;;5096099;28;20101;-90
2020/12/26 11:31:11;;;;;;;1999.90;999.90;;;5.50;99.90;;;;;;5099344;28;20059;-90
2020/12/26 11:33:38;;;;;;;1999.90;999.90;;;5.50;99.90;;;;;;5096125;28;20101;-90
2020/12/26 11:36:05;;;;;;;1999.90;999.90;;;5.60;99.90;;;;;;5096031;28;20044;-90
2020/12/26 11:38:32;;;;;;;1999.90;999.90;;;5.60;99.90;;;;;;5094242;28;20072;-89
2020/12/26 11:40:59;;;;;;;1999.90;999.90;;;5.70;99.90;;;;;;5091289;28;20075;-89
2020/12/26 11:43:27;;;;;;;1999.90;999.90;;;5.70;99.90;;;;;;5095106;28;20052;-90
2020/12/26 11:46:01;;;;;;;1999.90;999.90;;;5.70;99.90;;;;;;5098236;28;20048;-90
2020/12/26 11:48:29;;;;;;;1999.90;999.90;;;5.60;99.90;;;;;;5098818;28;20391;-90
2020/12/26 11:50:56;;;;;;;1999.90;999.90;;;5.70;99.90;;;;;;5093183;28;20048;-90
2020/12/26 11:53:34;;;;;;;1999.90;999.90;;;5.70;99.90;;;;;;5096674;28;20052;-90
2020/12/26 11:56:15;;;;;;;1999.90;999.90;;;5.80;99.90;;;;;;5084934;28;20542;-90
2020/12/26 11:58:45;;;;;;;1999.90;999.90;;;5.90;99.90;;;;;;5096898;28;20063;-90
2020/12/26 12:01:18;;;;;;;1999.90;999.90;;;5.90;99.90;;;;;;5099209;28;20098;-90
2020/12/26 12:03:46;;;;;;;1999.90;999.90;;;6.00;99.90;;;;;;5096671;28;20056;-90
2020/12/26 12:06:15;;;;;;;1999.90;999.90;;;6.00;99.90;;;;;;5094378;28;20044;-91
2020/12/26 12:08:44;;;;;;;1999.90;999.90;;;6.00;99.90;;;;;;5090091;28;20064;-90
2020/12/26 12:11:12;;;;;;;1999.90;999.90;;;6.00;99.90;;;;;;5096148;28;20044;-90
2020/12/26 12:13:39;;;;;;;1999.90;999.90;;;6.00;99.90;;;;;;5096184;28;20142;-90
2020/12/26 12:16:06;;;;;;;1999.90;999.90;;;6.00;99.90;;;;;;5095694;28;20094;-90
2020/12/26 12:18:34;;;;;;;1999.90;999.90;;;6.00;99.90;;;;;;5096349;28;20074;-90
2020/12/26 12:21:03;;;;;;;1999.90;999.90;;;5.90;99.90;;;;;;5098328;28;20048;-90
2020/12/26 12:23:30;;;;;;;1999.90;999.90;;;5.90;99.90;;;;;;5096097;28;20056;-89